Time;durP1;ratioP1;P1;durP2;ratioP2;P2;SDS_P1;SDS_P2;PMS_P1;PMS_P2;Temp;Humidity;BMP_temperature;BMP_pressure;BME280_temperature;BME280_humidity;BME280_pressure;Samples;Min_cycle;Max_cycle;Signal;HPM_P1;HPM_P2
2023/04/12 00:01:57;;;;;;;5.43;3.10;;;;;;;8.82;78.30;97620.06;4974553;28;20301;-79
2023/04/12 00:04:25;;;;;;;6.47;3.00;;;;;;;8.78;79.34;97618.56;4974402;28;20215;-78
2023/04/12 00:06:53;;;;;;;7.57;3.20;;;;;;;8.80;80.55;97627.22;4973610;28;20288;-77
2023/04/12 00:09:20;;;;;;;6.07;3.07;;;;;;;8.82;80.92;97620.06;4973506;28;20246;-78
2023/04/12 00:11:47;;;;;;;6.47;3.47;;;;;;;8.78;80.57;97623.84;4974346;28;20215;-78
2023/04/12 00:14:13;;;;;;;5.73;3.40;;;;;;;8.74;80.19;97622.38;4974576;28;20242;-79
2023/04/12 00:16:40;;;;;;;4.97;3.03;;;;;;;8.73;80.34;97620.69;4974128;28;20242;-79
2023/04/12 00:19:07;;;;;;;7.63;3.20;;;;;;;8.68;80.91;97622.78;4973863;28;20215;-77
2023/04/12 00:21:34;;;;;;;4.40;3.23;;;;;;;8.67;81.08;97614.06;4973970;28;20246;-78
2023/04/12 00:24:02;;;;;;;5.40;2.90;;;;;;;8.60;81.43;97619.84;4973578;28;20211;-78
2023/04/12 00:26:28;;;;;;;6.90;3.73;;;;;;;8.60;82.16;97614.59;4973817;28;20238;-78
2023/04/12 00:28:55;;;;;;;5.67;3.27;;;;;;;8.54;83.40;97610.59;4973896;28;20215;-78
2023/04/12 00:31:21;;;;;;;5.63;2.70;;;;;;;8.55;83.24;97611.44;4973154;28;20217;-78
2023/04/12 00:33:48;;;;;;;4.60;2.90;;;;;;;8.52;83.76;97612.47;4973813;28;20242;-78
2023/04/12 00:36:14;;;;;;;5.27;2.50;;;;;;;8.56;83.93;97611.31;4973651;28;20225;-78
2023/04/12 00:38:41;;;;;;;3.57;2.33;;;;;;;8.56;84.45;97605.25;4974277;28;20217;-78
2023/04/12 00:41:09;;;;;;;5.80;2.20;;;;;;;8.56;85.59;97608.69;4973452;28;20215;-77
2023/04/12 00:43:36;;;;;;;3.93;1.90;;;;;;;8.56;85.59;97608.69;4974002;28;20687;-78
2023/04/12 00:46:02;;;;;;;4.80;1.80;;;;;;;8.60;85.55;97604.06;4973961;28;20242;-77
2023/04/12 00:48:30;;;;;;;3.67;1.83;;;;;;;8.61;87.57;97611.00;4973774;28;20213;-76
2023/04/12 00:50:57;;;;;;;3.07;2.00;;;;;;;8.59;88.43;97607.66;4973760;28;20211;-77
2023/04/12 00:53:23;;;;;;;4.40;1.93;;;;;;;8.57;90.56;97609.56;4974070;28;20359;-77
2023/04/12 00:55:51;;;;;;;4.37;2.17;;;;;;;8.59;92.96;97608.50;4973621;28;20235;-78
2023/04/12 00:58:20;;;;;;;3.53;2.53;;;;;;;8.55;94.29;97606.16;4973751;28;20246;-76
2023/04/12 01:00:51;;;;;;;4.30;2.00;;;;;;;8.56;95.01;97595.53;4972863;28;20246;-77
2023/04/12 01:03:21;;;;;;;6.13;2.37;;;;;;;8.52;96.24;97601.94;4973157;28;20263;-78
2023/04/12 01:05:59;;;;;;;5.57;2.00;;;;;;;8.54;97.69;97609.75;4973367;28;20211;-77
2023/04/12 01:08:37;;;;;;;2.90;2.00;;;;;;;8.44;100.00;97606.09;4973684;28;20219;-78
2023/04/12 01:11:09;;;;;;;5.30;2.10;;;;;;;8.42;100.00;97594.78;4973129;28;20241;-77
2023/04/12 01:13:44;;;;;;;3.80;2.20;;;;;;;8.37;100.00;97596.91;4973583;28;20250;-77
2023/04/12 01:16:15;;;;;;;3.90;1.97;;;;;;;8.38;100.00;97595.97;4972966;28;20242;-77
2023/04/12 01:18:49;;;;;;;3.83;2.10;;;;;;;8.34;100.00;97592.69;4973529;28;20287;-77
2023/04/12 01:21:19;;;;;;;7.67;3.10;;;;;;;8.33;100.00;97584.91;4978546;28;20214;-77
2023/04/12 01:24:01;;;;;;;4.53;1.70;;;;;;;8.26;100.00;97581.84;4980144;28;20214;-77
2023/04/12 01:26:34;;;;;;;3.20;2.10;;;;;;;8.22;100.00;97582.16;4979892;28;20604;-78
2023/04/12 01:29:08;;;;;;;7.00;2.30;;;;;;;8.19;100.00;97582.31;4978292;28;20297;-77
2023/04/12 01:31:35;;;;;;;5.33;2.17;;;;;;;8.20;100.00;97573.53;4973132;28;20286;-76
2023/04/12 01:34:03;;;;;;;4.57;2.37;;;;;;;8.17;100.00;97571.06;4973080;28;20276;-77
2023/04/12 01:36:31;;;;;;;4.20;2.10;;;;;;;8.16;100.00;97574.66;4973365;28;20246;-77
2023/04/12 01:38:58;;;;;;;3.87;2.33;;;;;;;8.14;100.00;97582.66;4973292;28;20207;-76
2023/04/12 01:41:25;;;;;;;5.70;2.37;;;;;;;8.13;100.00;97566.94;4972661;28;20312;-78
2023/04/12 01:43:51;;;;;;;5.50;2.30;;;;;;;8.10;100.00;97568.03;4973270;28;20220;-78
2023/04/12 01:46:22;;;;;;;5.57;2.23;;;;;;;8.09;100.00;97561.06;4973482;28;20222;-77
2023/04/12 01:48:51;;;;;;;3.47;1.90;;;;;;;8.07;100.00;97559.47;4976788;28;20242;-76
2023/04/12 01:51:27;;;;;;;4.10;1.80;;;;;;;7.98;100.00;97554.84;4975928;28;20218;-78
2023/04/12 01:53:59;;;;;;;6.13;2.10;;;;;;;7.94;100.00;97556.00;4977098;28;20236;-77
2023/04/12 01:56:32;;;;;;;3.67;2.07;;;;;;;7.89;100.00;97544.97;4976382;28;20323;-79
2023/04/12 01:59:00;;;;;;;5.07;2.30;;;;;;;7.86;100.00;97542.53;4976519;28;20217;-79
2023/04/12 02:01:29;;;;;;;4.10;2.20;;;;;;;7.82;100.00;97538.41;4976498;28;20504;-79
2023/04/12 02:03:59;;;;;;;3.63;2.27;;;;;;;7.77;100.00;97528.22;4976582;28;20217;-79
2023/04/12 02:06:26;;;;;;;4.73;2.40;;;;;;;7.76;100.00;97530.94;4976340;28;20288;-79
2023/04/12 02:08:58;;;;;;;5.00;2.27;;;;;;;7.72;100.00;97519.78;4976418;28;20665;-78
2023/04/12 02:11:24;;;;;;;4.43;2.47;;;;;;;7.67;100.00;97510.53;4976221;28;20217;-79
2023/04/12 02:13:51;;;;;;;5.03;2.13;;;;;;;7.65;100.00;97508.00;4976177;28;20748;-79
2023/04/12 02:16:19;;;;;;;4.40;2.20;;;;;;;7.66;100.00;97506.22;4976070;28;20362;-76
2023/04/12 02:18:47;;;;;;;2.47;2.00;;;;;;;7.63;100.00;97488.84;4976962;28;20267;-78
2023/04/12 02:21:13;;;;;;;3.57;2.23;;;;;;;7.63;100.00;97490.63;4975438;28;20309;-77
2023/04/12 02:23:42;;;;;;;5.23;2.43;;;;;;;7.64;100.00;97480.00;4976488;28;20215;-78
2023/04/12 02:26:09;;;;;;;4.53;2.57;;;;;;;7.61;100.00;97479.38;4975910;28;20214;-78
2023/04/12 02:28:37;;;;;;;3.60;2.27;;;;;;;7.58;100.00;97474.31;4976363;28;20641;-77
2023/04/12 02:31:04;;;;;;;4.63;2.60;;;;;;;7.61;100.00;97474.13;4975465;28;20214;-78
2023/04/12 02:33:31;;;;;;;2.70;2.30;;;;;;;7.62;100.00;97465.28;4976092;28;20676;-77
2023/04/12 02:36:01;;;;;;;4.40;2.73;;;;;;;7.57;100.00;97462.97;4975823;28;20257;-78
2023/04/12 02:38:27;;;;;;;3.47;2.43;;;;;;;7.56;100.00;97463.91;4976159;28;20241;-77
2023/04/12 02:40:54;;;;;;;3.73;2.90;;;;;;;7.57;100.00;97462.13;4975267;28;20218;-77
2023/04/12 02:43:20;;;;;;;7.93;2.60;;;;;;;7.55;100.00;97451.72;4976178;28;20218;-78
2023/04/12 02:45:47;;;;;;;5.40;2.90;;;;;;;7.55;100.00;97454.34;4976085;28;20212;-76
2023/04/12 02:48:14;;;;;;;4.33;2.80;;;;;;;7.53;100.00;97450.16;4975920;28;20244;-78
2023/04/12 02:50:40;;;;;;;5.60;2.80;;;;;;;7.51;100.00;97444.13;4975850;28;20217;-78
2023/04/12 02:53:08;;;;;;;4.40;2.80;;;;;;;7.54;100.00;97436.03;4976189;28;20304;-79
2023/04/12 02:55:35;;;;;;;6.20;3.10;;;;;;;7.48;100.00;97434.66;4975728;28;20604;-79
2023/04/12 02:58:02;;;;;;;7.00;3.20;;;;;;;7.48;100.00;97425.94;4974152;28;20231;-79
2023/04/12 03:00:28;;;;;;;5.60;3.23;;;;;;;7.47;100.00;97432.97;4975427;28;20226;-79
2023/04/12 03:02:57;;;;;;;7.97;3.73;;;;;;;7.46;100.00;97422.56;4976076;28;20221;-79
2023/04/12 03:05:24;;;;;;;6.17;3.30;;;;;;;7.45;100.00;97420.88;4975849;28;20212;-79
2023/04/12 03:07:51;;;;;;;7.17;3.90;;;;;;;7.45;100.00;97415.63;4975774;28;20239;-79
2023/04/12 03:10:19;;;;;;;5.67;3.80;;;;;;;7.46;100.00;97406.78;4975062;28;20270;-77
2023/04/12 03:12:45;;;;;;;6.10;4.03;;;;;;;7.45;100.00;97405.97;4975288;28;20214;-77
2023/04/12 03:15:12;;;;;;;5.60;3.40;;;;;;;7.45;100.00;97395.44;4975921;28;20734;-79
2023/04/12 03:17:39;;;;;;;4.80;3.20;;;;;;;7.52;100.00;97393.22;4975555;28;20263;-79
2023/04/12 03:20:08;;;;;;;7.77;3.70;;;;;;;7.48;100.00;97389.97;4975372;28;20215;-78
2023/04/12 03:22:35;;;;;;;6.03;3.77;;;;;;;7.47;100.00;97383.03;4975478;28;20207;-79
2023/04/12 03:25:01;;;;;;;5.63;3.40;;;;;;;7.38;100.00;97377.56;4975716;28;20300;-79
2023/04/12 03:27:29;;;;;;;5.73;3.20;;;;;;;7.36;100.00;97369.78;4975615;28;20239;-79
2023/04/12 03:29:56;;;;;;;7.23;3.37;;;;;;;7.34;100.00;97365.59;4974718;28;20657;-79
2023/04/12 03:32:24;;;;;;;4.43;3.30;;;;;;;7.28;100.00;97369.47;4975402;28;20275;-79
2023/04/12 03:34:50;;;;;;;5.77;3.10;;;;;;;7.23;100.00;97357.59;4975747;28;20303;-79
2023/04/12 03:37:18;;;;;;;4.17;3.00;;;;;;;7.22;100.00;97350.66;4975524;28;20229;-79
2023/04/12 03:39:46;;;;;;;4.83;2.87;;;;;;;7.25;100.00;97347.81;4974887;28;20217;-79
2023/04/12 03:42:13;;;;;;;6.60;3.00;;;;;;;7.25;100.00;97345.19;4975186;28;20218;-79
2023/04/12 03:44:41;;;;;;;3.60;2.70;;;;;;;7.23;100.00;97340.03;4975209;28;20210;-79
2023/04/12 03:47:07;;;;;;;6.73;3.20;;;;;;;7.21;100.00;97343.69;4975430;28;20239;-78
2023/04/12 03:49:37;;;;;;;6.07;2.80;;;;;;;7.23;100.00;97341.81;4974768;28;20233;-79
2023/04/12 03:52:07;;;;;;;6.57;3.10;;;;;;;7.24;100.00;97338.25;4975276;28;20306;-79
2023/04/12 03:54:33;;;;;;;5.03;2.50;;;;;;;7.27;100.00;97327.50;4975160;28;20214;-78
2023/04/12 03:57:00;;;;;;;5.87;3.03;;;;;;;7.32;100.00;97324.59;4974823;28;20241;-79
2023/04/12 03:59:27;;;;;;;3.73;2.80;;;;;;;7.33;100.00;97321.84;4974915;28;20225;-78
2023/04/12 04:01:55;;;;;;;5.30;3.17;;;;;;;7.34;100.00;97313.03;4975268;28;20243;-79
2023/04/12 04:04:22;;;;;;;8.57;3.40;;;;;;;7.36;100.00;97313.75;4975436;28;20224;-80
2023/04/12 04:06:49;;;;;;;7.20;3.17;;;;;;;7.34;100.00;97305.16;4975487;28;20235;-80
2023/04/12 04:09:16;;;;;;;5.60;3.80;;;;;;;7.32;100.00;97305.25;4974335;28;20214;-80
2023/04/12 04:11:43;;;;;;;5.67;3.30;;;;;;;7.39;100.00;97310.91;4974766;28;20678;-79
2023/04/12 04:14:10;;;;;;;4.93;3.30;;;;;;;7.37;100.00;97304.91;4974968;28;20272;-79
2023/04/12 04:16:36;;;;;;;4.17;2.93;;;;;;;7.40;100.00;97296.78;4975389;28;20595;-79
2023/04/12 04:19:04;;;;;;;4.53;3.50;;;;;;;7.36;100.00;97292.72;4975035;28;20223;-80
2023/04/12 04:21:31;;;;;;;5.33;3.20;;;;;;;7.35;100.00;97291.06;4980372;28;20238;-79
2023/04/12 04:23:59;;;;;;;6.53;3.77;;;;;;;7.37;100.00;97281.25;4988157;28;20634;-80
2023/04/12 04:26:32;;;;;;;7.87;3.57;;;;;;;7.37;100.00;97281.25;4987827;28;20236;-79
2023/04/12 04:29:00;;;;;;;4.93;3.23;;;;;;;7.40;100.00;97275.78;4986674;28;20228;-79
2023/04/12 04:31:32;;;;;;;5.23;3.17;;;;;;;7.45;100.00;97261.38;4978142;28;20246;-80
2023/04/12 04:34:00;;;;;;;7.33;3.37;;;;;;;7.46;100.00;97270.09;4974865;28;20210;-80
2023/04/12 04:36:28;;;;;;;5.23;3.20;;;;;;;7.37;100.00;97268.13;4974924;28;20248;-80
2023/04/12 04:38:56;;;;;;;4.77;3.03;;;;;;;7.36;100.00;97264.63;4974435;28;20218;-80
2023/04/12 04:41:23;;;;;;;5.60;3.37;;;;;;;7.32;100.00;97252.69;4973980;28;20255;-80
2023/04/12 04:43:50;;;;;;;8.33;3.43;;;;;;;7.38;100.00;97255.81;4974581;28;20224;-80
2023/04/12 04:46:19;;;;;;;6.30;3.50;;;;;;;7.38;100.00;97258.47;4974899;28;20225;-80
2023/04/12 04:48:46;;;;;;;5.10;3.10;;;;;;;7.33;100.00;97249.09;4975206;28;20217;-80
2023/04/12 04:51:13;;;;;;;5.30;3.40;;;;;;;7.34;100.00;97249.94;4974676;28;20222;-79
2023/04/12 04:53:41;;;;;;;4.73;3.07;;;;;;;7.35;100.00;97244.56;4974737;28;20681;-80
2023/04/12 04:56:09;;;;;;;6.20;3.30;;;;;;;7.40;100.00;97246.84;4974805;28;20255;-80
2023/04/12 04:58:35;;;;;;;4.13;3.07;;;;;;;7.39;100.00;97242.56;4974768;28;20272;-80
2023/04/12 05:01:02;;;;;;;4.73;3.40;;;;;;;7.39;100.00;97250.44;4974620;28;20215;-80
2023/04/12 05:03:29;;;;;;;3.27;2.80;;;;;;;7.40;100.00;97244.22;4974936;28;20215;-80
2023/04/12 05:05:55;;;;;;;4.40;3.10;;;;;;;7.34;100.00;97239.44;4974736;28;20238;-81
2023/04/12 05:08:22;;;;;;;4.67;3.23;;;;;;;7.38;100.00;97240.88;4974684;28;20215;-79
2023/04/12 05:10:52;;;;;;;5.53;2.80;;;;;;;7.39;100.00;97242.56;4974183;28;20242;-79
2023/04/12 05:13:19;;;;;;;3.07;2.50;;;;;;;7.40;100.00;97236.34;4974617;28;20546;-80
2023/04/12 05:15:46;;;;;;;4.53;2.80;;;;;;;7.39;100.00;97239.94;4973895;28;20252;-80
2023/04/12 05:18:13;;;;;;;3.67;2.37;;;;;;;7.46;100.00;97239.41;4974026;28;20328;-80
2023/04/12 05:20:40;;;;;;;3.10;2.53;;;;;;;7.48;100.00;97223.50;4973225;28;20209;-80
2023/04/12 05:23:06;;;;;;;4.50;2.60;;;;;;;7.50;100.00;97226.88;4974547;28;20244;-80
2023/04/12 05:25:33;;;;;;;4.40;2.47;;;;;;;7.55;100.00;97225.59;4974075;28;20213;-79
2023/04/12 05:28:01;;;;;;;2.97;2.10;;;;;;;7.56;100.00;97229.06;4974091;28;20234;-80
2023/04/12 05:30:27;;;;;;;4.00;2.40;;;;;;;7.56;100.00;97221.16;4973623;28;20301;-78
2023/04/12 05:32:54;;;;;;;5.67;2.20;;;;;;;7.51;100.00;97210.13;4974505;28;20208;-80
2023/04/12 05:35:20;;;;;;;3.03;2.40;;;;;;;7.55;100.00;97212.47;4974193;28;20222;-80
2023/04/12 05:37:47;;;;;;;3.00;2.00;;;;;;;7.59;100.00;97199.94;4973779;28;20319;-80
2023/04/12 05:40:13;;;;;;;3.63;2.27;;;;;;;7.58;100.00;97203.47;4973419;28;20213;-80
2023/04/12 05:42:40;;;;;;;3.17;2.00;;;;;;;7.56;100.00;97208.88;4973832;28;20216;-80
2023/04/12 05:45:09;;;;;;;2.23;1.90;;;;;;;7.49;100.00;97188.38;4974165;28;20211;-80
2023/04/12 05:47:36;;;;;;;2.67;2.27;;;;;;;7.57;100.00;97189.53;4973558;28;20223;-81
2023/04/12 05:50:02;;;;;;;3.43;2.10;;;;;;;7.60;100.00;97177.94;4973712;28;20207;-80
2023/04/12 05:52:29;;;;;;;2.43;2.07;;;;;;;7.61;100.00;97171.72;4973738;28;20312;-80
2023/04/12 05:54:56;;;;;;;3.03;2.03;;;;;;;7.62;100.00;97171.63;4973336;28;20264;-80
2023/04/12 05:57:22;;;;;;;3.50;1.97;;;;;;;7.63;100.00;97161.94;4972897;28;20236;-80
2023/04/12 05:59:48;;;;;;;4.43;2.53;;;;;;;7.69;100.00;97153.59;4972960;28;20222;-80
2023/04/12 06:02:17;;;;;;;2.93;2.17;;;;;;;7.65;100.00;97154.78;4973012;28;20226;-80
2023/04/12 06:04:44;;;;;;;4.37;2.53;;;;;;;7.64;100.00;97158.34;4973638;28;20230;-81
2023/04/12 06:07:10;;;;;;;3.87;2.57;;;;;;;7.70;100.00;97142.13;4973552;28;20314;-80
2023/04/12 06:09:37;;;;;;;3.87;2.37;;;;;;;7.75;100.00;97143.47;4972721;28;20214;-80
2023/04/12 06:12:06;;;;;;;3.20;1.90;;;;;;;7.79;100.00;97136.19;4973153;28;20729;-80
2023/04/12 06:14:32;;;;;;;4.70;2.00;;;;;;;7.84;100.00;97134.91;4973133;28;20202;-80
2023/04/12 06:16:59;;;;;;;2.67;2.20;;;;;;;7.88;100.00;97132.88;4972785;28;20299;-83
2023/04/12 06:19:27;;;;;;;2.90;2.33;;;;;;;7.90;100.00;97123.09;4973306;28;20281;-84
2023/04/12 06:21:53;;;;;;;2.47;2.10;;;;;;;7.90;100.00;97118.66;4974258;28;20226;-84
2023/04/12 06:24:20;;;;;;;3.43;2.07;;;;;;;7.89;100.00;97116.16;4973721;28;20212;-79
2023/04/12 06:26:46;;;;;;;3.23;2.20;;;;;;;7.89;100.00;97111.72;4972301;28;20241;-79
2023/04/12 06:29:13;;;;;;;4.93;2.30;;;;;;;7.91;100.00;97098.47;4971806;28;20261;-79
2023/04/12 06:31:39;;;;;;;3.30;2.30;;;;;;;7.89;100.00;97100.38;4972698;28;20211;-79
2023/04/12 06:34:06;;;;;;;2.80;2.23;;;;;;;7.91;100.00;97103.72;4975493;28;20209;-79
2023/04/12 06:36:34;;;;;;;3.07;2.30;;;;;;;7.89;100.00;97090.69;4975317;28;20242;-79
2023/04/12 06:39:00;;;;;;;2.90;2.10;;;;;;;7.98;100.00;97086.53;4976096;28;20217;-79
2023/04/12 06:41:27;;;;;;;4.00;2.13;;;;;;;8.06;100.00;97076.25;4975165;28;20213;-78
2023/04/12 06:43:54;;;;;;;3.87;2.80;;;;;;;8.10;100.00;97077.69;4956373;29;20222;-80
2023/04/12 06:46:25;;;;;;;3.30;2.07;;;;;;;8.01;100.00;97079.22;4955384;28;20245;-79
2023/04/12 06:48:52;;;;;;;3.20;2.20;;;;;;;8.07;100.00;97072.66;4953906;29;20210;-79
2023/04/12 06:51:19;;;;;;;3.90;2.77;;;;;;;8.09;100.00;97070.78;4953360;28;20710;-78
2023/04/12 06:53:47;;;;;;;3.50;2.00;;;;;;;8.11;100.00;97056.53;4954241;29;20309;-79
2023/04/12 06:56:13;;;;;;;4.50;2.50;;;;;;;8.19;100.00;97053.31;4955360;29;20255;-75
2023/04/12 06:58:40;;;;;;;4.00;2.67;;;;;;;8.19;100.00;97053.31;4953602;28;20212;-76
2023/04/12 07:01:08;;;;;;;4.13;2.90;;;;;;;8.20;100.00;97052.41;4952987;29;20165;-76
2023/04/12 07:03:35;;;;;;;3.42;2.67;;;;;;;8.25;100.00;97050.22;4953425;29;20444;-76
2023/04/12 07:06:03;;;;;;;3.20;2.33;;;;;;;8.26;100.00;97050.13;4955935;29;20216;-81
2023/04/12 07:08:30;;;;;;;3.00;2.27;;;;;;;8.35;100.00;97046.78;4953728;29;20211;-79
2023/04/12 07:10:58;;;;;;;2.73;1.90;;;;;;;8.46;100.00;97036.25;4949320;29;20214;-78
2023/04/12 07:13:24;;;;;;;2.50;2.30;;;;;;;8.55;100.00;97021.53;4950951;29;20220;-79
2023/04/12 07:15:53;;;;;;;2.67;2.07;;;;;;;8.49;100.00;97028.13;4952416;29;20215;-79
2023/04/12 07:18:19;;;;;;;3.17;2.10;;;;;;;8.59;100.00;97008.03;4951854;29;20239;-79
2023/04/12 07:20:46;;;;;;;2.67;2.43;;;;;;;8.64;100.00;97010.28;4951356;29;20776;-79
2023/04/12 07:23:14;;;;;;;3.97;2.00;;;;;;;8.63;100.00;96990.19;4952317;29;20257;-76
2023/04/12 07:25:40;;;;;;;3.80;1.93;;;;;;;8.58;100.00;97010.75;4952169;29;20536;-79
2023/04/12 07:28:08;;;;;;;4.00;2.30;;;;;;;8.61;100.00;96994.72;4951946;28;20231;-78
2023/04/12 07:30:35;;;;;;;2.90;2.60;;;;;;;8.64;100.00;97002.38;4951063;29;20218;-78
2023/04/12 07:33:04;;;;;;;3.57;2.43;;;;;;;8.71;100.00;96974.59;4951614;29;20562;-77
2023/04/12 07:35:30;;;;;;;5.00;2.60;;;;;;;8.76;100.00;96973.25;4952160;29;20273;-76
2023/04/12 07:37:57;;;;;;;2.43;2.23;;;;;;;8.72;100.00;96971.00;4951727;28;20795;-76
2023/04/12 07:40:24;;;;;;;3.00;2.70;;;;;;;8.71;100.00;96958.78;4951019;29;20207;-77
2023/04/12 07:42:50;;;;;;;3.60;2.17;;;;;;;8.81;100.00;96951.84;4951816;29;20682;-77
2023/04/12 07:45:19;;;;;;;3.37;2.67;;;;;;;8.75;100.00;96941.78;4951132;29;20221;-77
2023/04/12 07:47:46;;;;;;;2.07;1.87;;;;;;;8.78;100.00;96938.88;4951640;29;20258;-76
2023/04/12 07:50:13;;;;;;;7.23;2.53;;;;;;;8.75;100.00;96932.06;4951206;29;20212;-77
2023/04/12 07:52:40;;;;;;;3.63;2.43;;;;;;;8.81;100.00;96928.13;4952033;28;20211;-77
2023/04/12 07:55:08;;;;;;;4.50;2.73;;;;;;;8.76;100.00;96919.75;4950313;28;20219;-78
2023/04/12 07:57:34;;;;;;;4.03;2.80;;;;;;;8.75;100.00;96911.00;4948954;29;20582;-77
2023/04/12 08:00:01;;;;;;;3.77;2.60;;;;;;;8.81;100.00;96909.69;4948575;29;20213;-76
2023/04/12 08:02:29;;;;;;;4.37;2.80;;;;;;;8.85;100.00;96905.81;4951380;28;20217;-77
2023/04/12 08:04:56;;;;;;;4.40;2.53;;;;;;;8.81;100.00;96907.03;4952140;29;20289;-77
2023/04/12 08:07:22;;;;;;;2.33;2.13;;;;;;;8.86;100.00;96900.44;4951759;29;20227;-77
2023/04/12 08:09:49;;;;;;;3.23;2.40;;;;;;;8.90;100.00;96901.88;4950933;29;20221;-78
2023/04/12 08:12:16;;;;;;;4.23;2.50;;;;;;;9.02;100.00;96903.50;4951508;29;20220;-77
2023/04/12 08:14:43;;;;;;;3.40;2.53;;;;;;;9.05;100.00;96902.41;4951470;29;20214;-80
2023/04/12 08:17:10;;;;;;;3.43;2.57;;;;;;;9.11;100.00;96901.91;4981353;22;20244;-81
2023/04/12 08:19:38;;;;;;;8.27;3.07;;;;;;;9.16;100.00;96892.63;5008704;28;20214;-84
2023/04/12 08:22:04;;;;;;;4.07;2.97;;;;;;;9.18;100.00;96897.78;5009298;28;20216;-84
2023/04/12 08:24:31;;;;;;;4.63;2.93;;;;;;;9.16;100.00;96899.69;5009787;28;20236;-90
2023/04/12 08:26:58;;;;;;;3.43;2.77;;;;;;;9.15;100.00;96903.28;5009214;28;20233;-79
2023/04/12 08:29:25;;;;;;;4.77;2.80;;;;;;;9.15;100.00;96892.75;5008809;28;20602;-84
2023/04/12 08:31:51;;;;;;;4.57;2.60;;;;;;;9.17;100.00;96893.47;5009436;28;20217;-81
2023/04/12 08:34:19;;;;;;;4.57;2.90;;;;;;;9.14;100.00;96885.81;5009167;28;20210;-79
2023/04/12 08:36:47;;;;;;;2.93;2.33;;;;;;;9.22;100.00;96888.63;5009048;28;20260;-79
2023/04/12 08:39:13;;;;;;;4.93;2.30;;;;;;;9.23;100.00;96885.06;5008424;28;20220;-79
2023/04/12 08:41:42;;;;;;;3.93;2.57;;;;;;;9.26;100.00;96883.00;5009035;28;20213;-79
2023/04/12 08:44:11;;;;;;;2.50;2.20;;;;;;;9.30;100.00;96899.41;5009034;28;20808;-79
2023/04/12 08:46:38;;;;;;;5.50;2.50;;;;;;;9.27;100.00;96897.00;5009040;28;20212;-78
2023/04/12 08:49:04;;;;;;;3.33;2.50;;;;;;;9.36;100.00;96893.63;5009055;28;20217;-78
2023/04/12 08:51:33;;;;;;;4.13;2.70;;;;;;;9.43;100.00;96895.59;5008187;28;20235;-77
2023/04/12 08:54:01;;;;;;;3.73;2.60;;;;;;;9.45;100.00;96901.59;5008838;28;20213;-77
2023/04/12 08:56:29;;;;;;;4.80;2.57;;;;;;;9.53;100.00;96879.81;5007799;28;20206;-83
2023/04/12 08:58:57;;;;;;;4.67;2.53;;;;;;;9.55;100.00;96883.19;5008847;28;20670;-81
2023/04/12 09:01:23;;;;;;;6.53;3.07;;;;;;;9.63;100.00;96876.28;5008029;28;20300;-77
2023/04/12 09:03:50;;;;;;;4.67;2.97;;;;;;;9.68;100.00;96882.00;5008717;28;20214;-77
2023/04/12 09:06:16;;;;;;;5.73;3.97;;;;;;;9.74;100.00;96883.28;5008631;28;20209;-77
2023/04/12 09:08:54;;;;;;;6.90;3.30;;;;;;;9.81;100.00;96868.59;5008362;28;20233;-77
2023/04/12 09:11:24;;;;;;;4.10;3.10;;;;;;;9.82;100.00;96865.00;5006727;28;20216;-77
2023/04/12 09:13:51;;;;;;;3.70;3.03;;;;;;;9.85;100.00;96855.00;5006362;28;20213;-76
2023/04/12 09:16:19;;;;;;;5.87;3.20;;;;;;;9.92;100.00;96852.69;5007870;28;20286;-76
2023/04/12 09:18:48;;;;;;;4.33;2.87;;;;;;;9.94;100.00;96853.38;5007316;28;20350;-76
2023/04/12 09:21:15;;;;;;;3.50;2.80;;;;;;;9.90;100.00;96841.44;5005896;28;20218;-76
2023/04/12 09:23:41;;;;;;;4.75;3.40;;;;;;;9.98;100.00;96833.69;5006660;28;20459;-78
2023/04/12 09:26:09;;;;;;;4.80;2.80;;;;;;;10.04;100.00;96841.09;5007731;28;20216;-79
2023/04/12 09:28:37;;;;;;;6.40;2.80;;;;;;;10.11;100.00;96839.59;5006904;28;20672;-79
2023/04/12 09:31:04;;;;;;;4.45;2.97;;;;;;;10.18;100.00;96835.44;5006205;28;20439;-79
2023/04/12 09:33:35;;;;;;;3.13;2.50;;;;;;;10.28;100.00;96831.84;5007358;28;20326;-83
2023/04/12 09:36:03;;;;;;;3.67;2.50;;;;;;;10.30;100.00;96831.72;5007184;28;20225;-80
2023/04/12 09:38:30;;;;;;;4.43;2.33;;;;;;;10.39;100.00;96823.00;5007177;28;20746;-83
2023/04/12 09:40:57;;;;;;;4.20;2.33;;;;;;;10.49;100.00;96823.81;5006920;28;20346;-85
2023/04/12 09:43:38;;;;;;;4.30;1.97;;;;;;;10.55;100.00;96831.19;5006741;28;20214;-81
2023/04/12 09:46:10;;;;;;;4.33;2.30;;;;;;;10.63;100.00;96824.25;5007410;28;20211;-81
2023/04/12 09:48:38;;;;;;;3.37;2.00;;;;;;;10.72;100.00;96814.66;5007589;28;20226;-82
2023/04/12 09:51:05;;;;;;;3.30;2.23;;;;;;;10.77;100.00;96833.59;5006061;28;20297;-79
2023/04/12 09:53:34;;;;;;;2.30;2.10;;;;;;;10.78;100.00;96829.97;5007321;28;20933;-79
2023/04/12 09:56:02;;;;;;;2.83;2.13;;;;;;;10.75;100.00;96817.88;5007389;28;20309;-81
2023/04/12 09:58:31;;;;;;;2.80;1.90;;;;;;;10.75;100.00;96822.31;5006563;28;20229;-79
2023/04/12 10:01:02;;;;;;;3.67;2.07;;;;;;;10.75;100.00;96819.66;5007466;28;20685;-80
2023/04/12 10:03:28;;;;;;;2.57;1.60;;;;;;;10.80;100.00;96818.28;5007760;28;20205;-79
2023/04/12 10:05:55;;;;;;;6.07;2.13;;;;;;;10.86;100.00;96809.81;5006557;28;20220;-80
2023/04/12 10:08:22;;;;;;;3.00;2.03;;;;;;;10.94;100.00;96803.81;5009666;28;20236;-81
2023/04/12 10:10:49;;;;;;;3.37;2.13;;;;;;;11.00;100.00;96813.84;5010798;28;20213;-83
2023/04/12 10:13:17;;;;;;;2.57;1.73;;;;;;;11.11;100.00;96811.03;5010567;28;20310;-81
2023/04/12 10:15:45;;;;;;;3.30;1.80;;;;;;;11.18;100.00;96812.97;5011093;28;20213;-81
2023/04/12 10:18:14;;;;;;;3.77;1.70;;;;;;;11.23;100.00;96809.88;5012367;28;20244;-80
2023/04/12 10:20:41;;;;;;;3.17;1.77;;;;;;;11.23;100.00;96809.88;5011959;28;20568;-82
2023/04/12 10:23:09;;;;;;;4.67;2.20;;;;;;;11.33;100.00;96794.84;5022127;28;20230;-80
2023/04/12 10:25:39;;;;;;;2.27;1.80;;;;;;;11.42;100.00;96810.69;5035254;28;20203;-82
2023/04/12 10:28:17;;;;;;;2.97;1.90;;;;;;;11.55;100.00;96799.81;5034594;28;20236;-82
2023/04/12 10:30:44;;;;;;;4.17;2.10;;;;;;;11.66;100.00;96791.69;5033847;28;20192;-81
2023/04/12 10:33:13;;;;;;;2.83;1.87;;;;;;;11.78;100.00;96796.69;5020739;28;20219;-85
2023/04/12 10:35:59;;;;;;;2.67;1.83;;;;;;;11.94;100.00;96796.06;5009976;28;20216;-79
2023/04/12 10:38:30;;;;;;;3.40;2.00;;;;;;;12.03;100.00;96801.31;5009457;28;20291;-83
2023/04/12 10:41:17;;;;;;;5.27;1.73;;;;;;;12.11;100.00;96787.34;5009573;28;20759;-83
2023/04/12 10:43:44;;;;;;;2.90;1.87;;;;;;;12.22;100.00;96793.25;5008049;28;20217;-85
2023/04/12 10:46:49;;;;;;;3.13;1.80;;;;;;;12.32;100.00;96779.94;5007759;28;20220;-80
2023/04/12 10:49:18;;;;;;;2.60;1.57;;;;;;;12.34;100.00;96778.81;5008447;28;20795;-83
2023/04/12 10:52:14;;;;;;;2.67;1.40;;;;;;;12.46;100.00;96782.09;5009227;28;20229;-81
2023/04/12 10:54:40;;;;;;;3.50;1.60;;;;;;;12.54;100.00;96775.03;5007912;28;20271;-85
2023/04/12 10:57:07;;;;;;;1.83;1.47;;;;;;;12.63;100.00;96768.00;5006501;28;20225;-85
2023/04/12 10:59:58;;;;;;;4.43;1.80;;;;;;;12.68;100.00;96763.94;5008005;28;20270;-85
2023/04/12 11:02:24;;;;;;;2.27;1.47;;;;;;;12.73;100.00;96774.06;5009726;28;20824;-83
2023/04/12 11:05:09;;;;;;;1.60;1.40;;;;;;;12.82;100.00;96760.72;5008148;28;20206;-85
2023/04/12 11:07:40;;;;;;;2.20;1.50;;;;;;;12.97;100.00;96766.38;5006926;28;20731;-86
2023/04/12 11:10:13;;;;;;;3.33;1.60;;;;;;;13.06;100.00;96744.22;5006713;28;20209;-82
2023/04/12 11:12:40;;;;;;;1.53;1.27;;;;;;;13.16;100.00;96740.50;5008118;28;20867;-81
2023/04/12 11:15:11;;;;;;;3.40;1.50;;;;;;;13.24;100.00;96743.19;5009803;28;20216;-89
2023/04/12 11:17:38;;;;;;;1.40;1.20;;;;;;;13.20;100.00;96730.41;5009605;28;20231;-80
2023/04/12 11:20:10;;;;;;;2.80;1.40;;;;;;;13.21;98.69;96738.19;5007322;28;20220;-84
2023/04/12 11:22:38;;;;;;;2.47;1.10;;;;;;;13.31;98.87;96738.06;5009493;28;20214;-84
2023/04/12 11:25:06;;;;;;;3.37;1.00;;;;;;;13.45;100.00;96740.19;5009577;28;20308;-83
2023/04/12 11:27:33;;;;;;;2.50;1.23;;;;;;;13.60;99.38;96730.63;5007987;28;20227;-83
2023/04/12 11:30:01;;;;;;;1.23;1.13;;;;;;;13.59;99.23;96732.47;5006242;28;20212;-83
2023/04/12 11:32:28;;;;;;;2.60;1.10;;;;;;;13.57;98.94;96729.13;5008780;28;20217;-85
2023/04/12 11:34:56;;;;;;;2.57;1.27;;;;;;;13.70;97.60;96731.34;5008381;28;20221;-82
2023/04/12 11:37:25;;;;;;;2.90;1.40;;;;;;;13.72;99.30;96726.69;5009272;28;20263;-83